Portada
METAR-TAF:

METAR-TAF

Aeroports :

Cobija, Bolívia

latitud: 11-02S, longitud: 068-47W, altitud: 235 m

Observació

L'informe es va fer fa 9 hores i 11 minuts, a les 23:00 UTC
Vent calma
Temperatura 29°C
Humitat 74%
Pressió 1014 hPa
Visibilitat 10 km o més
Escasses núvols a una alçada de 2500 ft
Cel ennuvolat a una alçada de 20000 ft

METAR: SLCO 192300Z 00000KT 9999 FEW025 BKN200 29/24 Q1014

Hora: 04:11 (08:11 UTC)

Pronòstic

L'informe es va fer fa 3 hores i 21 minuts, a les 04:50 UTC
Pronòstic vàlid del 20 a les 06 UTC al 21 a les 06 UTC
Vent kt del Nord
Visibilitat 10 km o més
Escasses núvols a una alçada de 1500 ft
Evolucionant progressivament
l' 20 a les 12 UTC al 20 a les 14 UTC
Vent 6 kt del Est/Sud-Est
Núvols disperses a una alçada de 1700 ft

TAF: SLCO 200450Z 2006/2106 00000KT 9999 FEW015 TX32/2020Z TN20/2011Z BECMG 2012/2014 12006KT SCT017

Observacions i pronòstics meteorològics de més de 4000 aeroports (METAR i TAF).

Les estacions disponibles són els punts grocs i vermells al mapa.

Posi el ratolí al punt desitjat per veure el nom de l'estació.

Feu clic per veure les observacions i els pronòstics meteorològics.

Per canviar el mapa: feu clic els botons verds amb una creu de color negre per apropar; al botó verd amb un guió per allunyar la imatge; o en les fletxes verdes per a mapes adjacents.


METAR-TAF: